createdAt,value
2023-05-05T00:00:01.071Z,10.43
2023-05-05T00:01:01.063Z,11.48
2023-05-05T00:02:01.100Z,10.93
2023-05-05T00:03:01.144Z,12.06
2023-05-05T00:04:01.095Z,11.73
2023-05-05T00:05:01.037Z,11.86
2023-05-05T00:06:01.052Z,11.28
2023-05-05T00:07:01.035Z,11.89
2023-05-05T00:08:01.004Z,10.92
2023-05-05T00:09:01.022Z,10.88
2023-05-05T00:10:01.004Z,11.59
2023-05-05T00:11:00.983Z,11.52
2023-05-05T00:12:00.975Z,10.63
2023-05-05T00:13:00.972Z,9.86
2023-05-05T00:14:00.953Z,10.14
2023-05-05T00:15:00.946Z,11.09
2023-05-05T00:16:00.954Z,11.34
2023-05-05T00:17:00.975Z,11.36
2023-05-05T00:18:00.984Z,10.94
2023-05-05T00:19:00.962Z,11.26
2023-05-05T00:20:00.920Z,11.41
2023-05-05T00:21:00.949Z,10.68
2023-05-05T00:22:00.924Z,9.98
2023-05-05T00:23:00.914Z,9.73
2023-05-05T00:24:00.883Z,10.09
2023-05-05T00:25:00.892Z,10.38
2023-05-05T00:26:00.887Z,10.56
2023-05-05T00:27:00.883Z,10.31
2023-05-05T00:28:00.875Z,9.84
2023-05-05T00:29:00.899Z,10.32
2023-05-05T00:30:00.860Z,10.04
2023-05-05T00:31:00.859Z,10.13
2023-05-05T00:32:00.847Z,10.28
2023-05-05T00:33:00.836Z,10.17
2023-05-05T00:34:00.844Z,10.74
2023-05-05T00:35:00.813Z,10.39
2023-05-05T00:36:00.829Z,11.55
2023-05-05T00:37:00.797Z,11.79
2023-05-05T00:38:00.800Z,10.67
2023-05-05T00:39:00.835Z,11.20
2023-05-05T00:40:00.777Z,11.71
2023-05-05T00:41:00.761Z,11.34
2023-05-05T00:42:00.758Z,11.83
2023-05-05T00:43:00.789Z,12.34
2023-05-05T00:44:00.761Z,14.03
2023-05-05T00:45:00.741Z,13.99
2023-05-05T00:46:00.748Z,13.80
2023-05-05T00:47:00.738Z,14.39
2023-05-05T00:48:00.889Z,15.25
2023-05-05T00:49:00.723Z,15.67
2023-05-05T00:50:00.711Z,15.47
2023-05-05T00:51:00.728Z,16.20
2023-05-05T00:52:00.679Z,16.91
2023-05-05T00:53:00.679Z,17.57
2023-05-05T00:54:00.688Z,18.43
2023-05-05T00:55:00.693Z,17.49
2023-05-05T00:56:00.668Z,16.94
2023-05-05T00:57:00.656Z,16.05
2023-05-05T00:58:00.649Z,15.06
2023-05-05T00:59:00.641Z,14.88
2023-05-05T01:00:00.637Z,14.94
2023-05-05T01:01:00.627Z,14.55
2023-05-05T01:02:00.695Z,14.49
2023-05-05T01:03:00.682Z,14.32
2023-05-05T01:04:00.642Z,14.88
2023-05-05T01:05:00.586Z,14.09
2023-05-05T01:06:00.573Z,14.97
2023-05-05T01:07:00.582Z,14.10
2023-05-05T01:08:00.570Z,14.32
2023-05-05T01:09:00.556Z,14.13
2023-05-05T01:10:14.958Z,14.56
2023-05-05T01:11:01.558Z,14.47
2023-05-05T01:12:00.557Z,14.62
2023-05-05T01:13:00.643Z,14.58
2023-05-05T01:14:00.516Z,14.44
2023-05-05T01:15:00.509Z,15.07
2023-05-05T01:16:00.536Z,15.15
2023-05-05T01:17:00.507Z,14.90
2023-05-05T01:18:00.529Z,14.44
2023-05-05T01:19:00.496Z,14.11
2023-05-05T01:20:00.466Z,14.83
2023-05-05T01:21:00.469Z,15.15
2023-05-05T01:22:00.488Z,15.29
2023-05-05T01:23:00.453Z,15.87
2023-05-05T01:24:00.430Z,15.45
2023-05-05T01:25:00.466Z,15.03
2023-05-05T01:26:00.420Z,14.76
2023-05-05T01:27:00.409Z,15.35
2023-05-05T01:28:00.417Z,15.21
2023-05-05T01:29:00.427Z,14.46
2023-05-05T01:30:00.463Z,14.52
2023-05-05T01:31:00.467Z,14.97
2023-05-05T01:32:00.603Z,15.57
2023-05-05T01:33:00.537Z,15.99
2023-05-05T01:34:00.493Z,15.15
2023-05-05T01:35:00.587Z,15.59
2023-05-05T01:36:00.607Z,15.59
2023-05-05T01:37:00.617Z,16.44
2023-05-05T01:38:00.628Z,17.13
2023-05-05T01:39:00.655Z,16.18
2023-05-05T01:40:00.640Z,16.00
2023-05-05T01:41:00.640Z,15.09
2023-05-05T01:42:00.647Z,15.78
2023-05-05T01:43:00.660Z,16.14
2023-05-05T01:44:00.668Z,15.88
2023-05-05T01:45:00.717Z,15.90
2023-05-05T01:46:00.782Z,15.59
2023-05-05T01:47:00.736Z,16.59
2023-05-05T01:48:00.767Z,16.21
2023-05-05T01:49:00.774Z,16.73
2023-05-05T01:50:00.804Z,15.74
2023-05-05T01:51:00.813Z,15.11
2023-05-05T01:52:00.817Z,15.31
2023-05-05T01:53:00.836Z,15.74
2023-05-05T01:54:00.865Z,15.59
2023-05-05T01:55:00.919Z,15.23
2023-05-05T01:56:00.937Z,15.53
2023-05-05T01:57:00.952Z,16.09
2023-05-05T01:58:00.952Z,15.45
2023-05-05T01:59:00.969Z,15.40
2023-05-05T02:00:00.980Z,16.24
2023-05-05T02:01:01.019Z,16.30
2023-05-05T02:02:01.088Z,15.80
2023-05-05T02:03:01.104Z,16.34
2023-05-05T02:04:01.028Z,15.75
2023-05-05T02:05:01.053Z,16.07
2023-05-05T02:06:01.063Z,15.68
2023-05-05T02:07:01.084Z,16.44
2023-05-05T02:08:01.091Z,15.87
2023-05-05T02:09:01.112Z,16.38
2023-05-05T02:10:01.122Z,16.75
2023-05-05T02:11:01.151Z,16.87
2023-05-05T02:12:01.148Z,17.15
2023-05-05T02:13:01.180Z,16.30
2023-05-05T02:14:01.261Z,16.46
2023-05-05T02:15:01.216Z,16.80
2023-05-05T02:16:01.272Z,17.28
2023-05-05T02:17:01.229Z,16.52
2023-05-05T02:18:01.290Z,15.78
2023-05-05T02:19:01.267Z,16.96
2023-05-05T02:20:01.344Z,17.15
2023-05-05T02:21:01.286Z,17.72
2023-05-05T02:22:01.314Z,17.45
2023-05-05T02:23:01.312Z,16.73
2023-05-05T02:24:01.393Z,16.72
2023-05-05T02:25:01.391Z,16.40
2023-05-05T02:26:01.401Z,16.46
2023-05-05T02:27:01.417Z,16.75
2023-05-05T02:28:01.441Z,17.03
2023-05-05T02:29:01.554Z,17.03
2023-05-05T02:30:01.548Z,16.73
2023-05-05T02:31:01.614Z,17.01
2023-05-05T02:32:01.579Z,17.37
2023-05-05T02:33:01.614Z,17.29
2023-05-05T02:34:01.622Z,16.96
2023-05-05T02:35:01.732Z,17.51
2023-05-05T02:36:01.820Z,16.98
2023-05-05T02:37:01.822Z,17.01
2023-05-05T02:38:01.870Z,17.09
2023-05-05T02:39:01.816Z,17.44
2023-05-05T02:40:01.918Z,17.34
2023-05-05T02:41:01.993Z,17.90
2023-05-05T02:42:01.949Z,17.59
2023-05-05T02:43:01.996Z,16.97
2023-05-05T02:44:01.962Z,17.19
2023-05-05T02:45:01.992Z,16.74
2023-05-05T02:46:02.054Z,16.78
2023-05-05T02:47:02.009Z,16.82
2023-05-05T02:48:02.060Z,16.97
2023-05-05T02:49:02.045Z,16.16
2023-05-05T02:50:02.060Z,16.78
2023-05-05T02:51:02.068Z,17.37
2023-05-05T02:52:02.068Z,17.12
2023-05-05T02:53:02.075Z,16.61
2023-05-05T02:54:02.084Z,16.70
2023-05-05T02:55:02.090Z,16.34
2023-05-05T02:56:02.096Z,16.79
2023-05-05T02:57:02.114Z,16.88
2023-05-05T02:58:02.133Z,16.76
2023-05-05T02:59:02.137Z,17.39
2023-05-05T03:00:02.123Z,17.66
2023-05-05T03:01:02.140Z,17.53
2023-05-05T03:02:02.153Z,17.20
2023-05-05T03:03:02.239Z,16.80
2023-05-05T03:04:02.167Z,17.16
2023-05-05T03:05:02.182Z,16.93
2023-05-05T03:06:02.202Z,16.88
2023-05-05T03:07:02.226Z,16.93
2023-05-05T03:08:02.338Z,16.83
2023-05-05T03:09:02.235Z,16.96
2023-05-05T03:10:02.228Z,17.12
2023-05-05T03:11:02.266Z,16.90
2023-05-05T03:12:02.271Z,17.13
2023-05-05T03:13:02.376Z,16.84
2023-05-05T03:14:02.260Z,16.91
2023-05-05T03:15:02.329Z,17.13
2023-05-05T03:16:02.369Z,16.84
2023-05-05T03:17:02.361Z,16.50
2023-05-05T03:18:02.377Z,16.65
2023-05-05T03:19:02.347Z,16.34
2023-05-05T03:20:03.814Z,16.67
2023-05-05T03:21:02.389Z,16.20
2023-05-05T03:22:02.377Z,16.40
2023-05-05T03:23:02.383Z,16.14
2023-05-05T03:24:02.400Z,16.13
2023-05-05T03:25:02.422Z,15.62
2023-05-05T03:26:02.410Z,15.52
2023-05-05T03:27:02.395Z,15.53
2023-05-05T03:28:02.440Z,15.42
2023-05-05T03:29:02.424Z,15.29
2023-05-05T03:30:02.427Z,15.32
2023-05-05T03:31:02.429Z,15.36
2023-05-05T03:32:02.452Z,15.40
2023-05-05T03:33:02.431Z,14.76
2023-05-05T03:34:02.426Z,15.00
2023-05-05T03:35:02.442Z,15.20
2023-05-05T03:36:02.454Z,14.99
2023-05-05T03:37:02.438Z,14.71
2023-05-05T03:38:02.447Z,15.01
2023-05-05T03:39:02.486Z,15.01
2023-05-05T03:40:02.473Z,14.36
2023-05-05T03:41:02.509Z,14.80
2023-05-05T03:42:02.479Z,14.67
2023-05-05T03:43:02.526Z,14.79
2023-05-05T03:44:02.544Z,14.39
2023-05-05T03:45:02.550Z,14.60
2023-05-05T03:46:02.564Z,15.14
2023-05-05T03:47:02.567Z,14.89
2023-05-05T03:48:02.582Z,15.85
2023-05-05T03:49:02.572Z,15.39
2023-05-05T03:50:02.555Z,14.88
2023-05-05T03:51:02.594Z,15.57
2023-05-05T03:52:02.614Z,15.68
2023-05-05T03:53:02.609Z,15.92
2023-05-05T03:54:02.607Z,16.01
2023-05-05T03:55:02.601Z,15.26
2023-05-05T03:56:02.597Z,15.27
2023-05-05T03:57:02.612Z,15.78
2023-05-05T03:58:02.623Z,15.98
2023-05-05T03:59:02.633Z,16.10
2023-05-05T04:00:02.613Z,16.13
2023-05-05T04:01:02.616Z,16.58
2023-05-05T04:02:02.642Z,16.33
2023-05-05T04:03:02.743Z,15.67
2023-05-05T04:04:02.734Z,16.00
2023-05-05T04:05:02.687Z,14.79
2023-05-05T04:06:02.699Z,14.84
2023-05-05T04:07:02.707Z,15.09
2023-05-05T04:08:02.726Z,15.31
2023-05-05T04:09:02.721Z,14.67
2023-05-05T04:10:02.763Z,14.92
2023-05-05T04:11:02.815Z,15.08
2023-05-05T04:12:02.772Z,15.30
2023-05-05T04:13:02.820Z,14.96
2023-05-05T04:14:02.818Z,14.99
2023-05-05T04:15:02.818Z,15.01
2023-05-05T04:16:02.823Z,14.77
2023-05-05T04:17:02.834Z,14.33
2023-05-05T04:18:02.897Z,14.56
2023-05-05T04:19:02.809Z,13.91
2023-05-05T04:20:02.818Z,14.13
2023-05-05T04:21:02.859Z,14.39
2023-05-05T04:22:02.848Z,14.18
2023-05-05T04:23:02.857Z,13.41
2023-05-05T04:24:02.871Z,13.38
2023-05-05T04:25:02.906Z,13.37
2023-05-05T04:26:02.922Z,13.67
2023-05-05T04:27:02.897Z,13.71
2023-05-05T04:28:02.927Z,13.44
2023-05-05T04:29:02.917Z,13.50
2023-05-05T04:30:02.939Z,13.40
2023-05-05T04:31:02.957Z,13.05
2023-05-05T04:32:02.937Z,13.49
2023-05-05T04:33:02.997Z,13.25
2023-05-05T04:34:02.983Z,13.80
2023-05-05T04:35:02.993Z,13.78
2023-05-05T04:36:02.966Z,13.20
2023-05-05T04:37:02.985Z,13.46
2023-05-05T04:38:03.003Z,13.47
2023-05-05T04:39:03.065Z,13.33
2023-05-05T04:40:02.995Z,13.06
2023-05-05T04:41:03.034Z,13.00
2023-05-05T04:42:03.035Z,13.05
2023-05-05T04:43:03.036Z,12.94
2023-05-05T04:44:03.045Z,12.87
2023-05-05T04:45:03.051Z,12.37
2023-05-05T04:46:03.049Z,12.10
2023-05-05T04:47:03.031Z,11.67
2023-05-05T04:48:03.095Z,11.61
2023-05-05T04:49:03.060Z,12.13
2023-05-05T04:50:03.057Z,12.46
2023-05-05T04:51:03.057Z,11.85
2023-05-05T04:52:03.088Z,12.02
2023-05-05T04:53:03.088Z,11.98
2023-05-05T04:54:03.089Z,11.94
2023-05-05T04:55:03.103Z,12.14
2023-05-05T04:56:03.123Z,11.54
2023-05-05T04:57:03.112Z,11.96
2023-05-05T04:58:03.116Z,11.46
2023-05-05T04:59:03.131Z,11.44
2023-05-05T05:00:03.129Z,11.43
2023-05-05T05:01:03.135Z,11.22
2023-05-05T05:02:03.167Z,11.01
2023-05-05T05:03:03.250Z,10.92
2023-05-05T05:04:03.274Z,10.98
2023-05-05T05:05:03.159Z,10.93
2023-05-05T05:06:03.184Z,10.75
2023-05-05T05:07:03.187Z,10.70
2023-05-05T05:08:03.233Z,11.30
2023-05-05T05:09:03.262Z,11.05
2023-05-05T05:10:03.300Z,11.33
2023-05-05T05:11:03.351Z,11.05
2023-05-05T05:12:03.402Z,11.01
2023-05-05T05:13:03.522Z,11.14
2023-05-05T05:14:03.516Z,11.32
2023-05-05T05:15:03.591Z,11.11
2023-05-05T05:16:03.697Z,11.58
2023-05-05T05:17:03.709Z,11.61
2023-05-05T05:18:03.789Z,11.41
2023-05-05T05:19:03.811Z,11.38
2023-05-05T05:20:03.892Z,11.98
2023-05-05T05:21:03.940Z,12.22
2023-05-05T05:22:04.037Z,12.68
2023-05-05T05:23:04.056Z,12.74
2023-05-05T05:24:04.128Z,12.76
2023-05-05T05:25:04.194Z,12.99
2023-05-05T05:26:04.287Z,12.76
2023-05-05T05:27:04.315Z,12.48
2023-05-05T05:28:09.528Z,12.58
2023-05-05T05:29:05.374Z,12.59
2023-05-05T05:30:04.366Z,12.61
2023-05-05T05:31:04.354Z,12.68
2023-05-05T05:32:04.381Z,11.68
2023-05-05T05:33:04.392Z,8.57
2023-05-05T05:34:04.788Z,7.72
2023-05-05T05:35:04.307Z,7.82
2023-05-05T05:36:04.301Z,6.28
2023-05-05T05:37:04.290Z,6.33
2023-05-05T05:38:04.314Z,5.68
2023-05-05T05:39:04.291Z,5.59
2023-05-05T05:40:04.288Z,5.97
2023-05-05T05:41:04.278Z,6.54
2023-05-05T05:42:04.284Z,7.51
2023-05-05T05:43:04.320Z,8.39
2023-05-05T05:44:04.335Z,9.19
2023-05-05T05:45:04.325Z,10.39
2023-05-05T05:46:05.389Z,11.38
2023-05-05T05:47:04.471Z,12.43
2023-05-05T05:48:04.566Z,12.67
2023-05-05T05:49:04.471Z,12.56
2023-05-05T05:50:04.489Z,11.92
2023-05-05T05:51:04.524Z,11.84
2023-05-05T05:52:04.560Z,10.96
2023-05-05T05:53:04.602Z,10.18
2023-05-05T05:54:04.653Z,10.05
2023-05-05T05:55:04.699Z,11.14
2023-05-05T05:56:04.776Z,13.40
2023-05-05T05:57:04.829Z,14.53
2023-05-05T05:58:04.876Z,14.52
2023-05-05T05:59:04.929Z,14.37
2023-05-05T06:00:04.957Z,15.30
2023-05-05T06:01:05.019Z,15.87
2023-05-05T06:02:05.036Z,16.81
2023-05-05T06:03:05.105Z,17.26
2023-05-05T06:04:05.355Z,16.98
2023-05-05T06:05:05.107Z,15.72
2023-05-05T06:06:05.117Z,16.82
2023-05-05T06:07:05.137Z,17.84
2023-05-05T06:08:05.216Z,18.69
2023-05-05T06:09:05.186Z,18.89
2023-05-05T06:10:22.862Z,19.07
2023-05-05T06:11:06.215Z,19.10
2023-05-05T06:12:05.194Z,19.28
2023-05-05T06:13:05.230Z,19.60
2023-05-05T06:14:05.197Z,20.50
2023-05-05T06:15:05.188Z,21.56
2023-05-05T06:16:05.257Z,22.34
2023-05-05T06:17:05.153Z,22.68
2023-05-05T06:18:05.189Z,23.28
2023-05-05T06:19:05.310Z,23.70
2023-05-05T06:20:05.190Z,24.00
2023-05-05T06:21:05.134Z,23.62
2023-05-05T06:22:05.138Z,23.96
2023-05-05T06:23:05.112Z,24.54
2023-05-05T06:24:05.118Z,25.20
2023-05-05T06:25:05.105Z,25.46
2023-05-05T06:26:05.089Z,25.18
2023-05-05T06:27:05.083Z,25.31
2023-05-05T06:28:05.078Z,25.97
2023-05-05T06:29:05.084Z,26.53
2023-05-05T06:30:05.071Z,26.27
2023-05-05T06:31:05.105Z,26.69
2023-05-05T06:32:05.322Z,22.53
2023-05-05T06:33:05.065Z,14.53
2023-05-05T06:34:05.026Z,9.17
2023-05-05T06:35:05.035Z,7.07
2023-05-05T06:36:05.084Z,7.39
2023-05-05T06:37:05.122Z,7.32
2023-05-05T06:38:05.139Z,7.50
2023-05-05T06:39:05.211Z,9.35
2023-05-05T06:40:05.206Z,10.88
2023-05-05T06:41:05.251Z,11.71
2023-05-05T06:42:05.261Z,12.57
2023-05-05T06:43:05.305Z,12.39
2023-05-05T06:44:05.317Z,13.10
2023-05-05T06:45:05.331Z,13.60
2023-05-05T06:46:05.358Z,14.17
2023-05-05T06:47:05.945Z,14.71
2023-05-05T06:48:05.398Z,14.61
2023-05-05T06:49:05.348Z,14.07
2023-05-05T06:50:05.508Z,13.52
2023-05-05T06:51:05.368Z,10.70
2023-05-05T06:52:05.378Z,11.38
2023-05-05T06:53:05.384Z,9.99
2023-05-05T06:54:05.810Z,8.71
2023-05-05T06:55:05.415Z,7.39
2023-05-05T06:56:05.405Z,6.39
2023-05-05T06:57:05.507Z,6.23
2023-05-05T06:58:05.413Z,6.23
2023-05-05T06:59:05.432Z,6.07
2023-05-05T07:00:05.627Z,5.55
2023-05-05T07:01:05.473Z,4.60
2023-05-05T07:02:05.433Z,5.32
2023-05-05T07:03:05.478Z,4.60
2023-05-05T07:04:05.496Z,2.85
2023-05-05T07:05:05.496Z,1.96
2023-05-05T07:06:05.491Z,1.38
2023-05-05T07:07:05.526Z,1.14
2023-05-05T07:08:05.581Z,0.91
2023-05-05T07:09:05.817Z,0.75
2023-05-05T07:10:05.724Z,0.78
2023-05-05T07:11:05.664Z,0.87
2023-05-05T07:12:05.833Z,0.88
2023-05-05T07:13:05.821Z,1.03
2023-05-05T07:14:05.785Z,0.94
2023-05-05T07:15:15.785Z,0.95
2023-05-05T07:16:06.853Z,0.95
2023-05-05T07:17:05.776Z,0.96
2023-05-05T07:18:05.798Z,1.04
2023-05-05T07:19:05.760Z,1.22
2023-05-05T07:20:05.997Z,1.30
2023-05-05T07:21:05.739Z,1.30
2023-05-05T07:22:05.743Z,1.42
2023-05-05T07:23:06.041Z,1.39
2023-05-05T07:24:05.729Z,1.37
2023-05-05T07:25:05.731Z,1.24
2023-05-05T07:26:05.720Z,1.18
2023-05-05T07:27:05.702Z,1.26
2023-05-05T07:28:05.703Z,1.51
2023-05-05T07:29:05.895Z,1.56
2023-05-05T07:30:11.185Z,1.88
2023-05-05T07:31:06.688Z,1.90
2023-05-05T07:32:05.882Z,2.09
2023-05-05T07:33:05.709Z,2.58
2023-05-05T07:34:05.655Z,3.77
2023-05-05T07:35:05.665Z,6.35
2023-05-05T07:36:05.646Z,7.47
2023-05-05T07:37:05.856Z,7.48
2023-05-05T07:38:05.613Z,7.96
2023-05-05T07:39:05.633Z,9.23
2023-05-05T07:40:05.859Z,10.51
2023-05-05T07:41:05.675Z,11.51
2023-05-05T07:42:05.715Z,12.40
2023-05-05T07:43:05.764Z,13.06
2023-05-05T07:44:05.825Z,13.53
2023-05-05T07:45:06.040Z,13.75
2023-05-05T07:46:05.989Z,12.62
2023-05-05T07:47:05.996Z,10.50
2023-05-05T07:48:06.106Z,11.63
2023-05-05T07:49:06.331Z,12.18
2023-05-05T07:50:06.506Z,12.81
2023-05-05T07:51:06.195Z,13.06
2023-05-05T07:52:06.228Z,13.31
2023-05-05T07:53:14.484Z,13.47
2023-05-05T07:54:07.344Z,12.01
2023-05-05T07:55:06.267Z,12.73
2023-05-05T07:56:06.269Z,13.51
2023-05-05T07:57:06.258Z,13.95
2023-05-05T07:58:06.258Z,14.04
2023-05-05T07:59:06.334Z,13.17
2023-05-05T08:00:06.527Z,13.77
2023-05-05T08:01:06.377Z,13.81
2023-05-05T08:02:06.368Z,14.38
2023-05-05T08:03:07.770Z,14.31
2023-05-05T08:04:06.276Z,14.74
2023-05-05T08:05:06.706Z,14.76
2023-05-05T08:06:06.226Z,14.31
2023-05-05T08:07:06.219Z,12.77
2023-05-05T08:08:06.198Z,11.72
2023-05-05T08:09:06.175Z,11.43
2023-05-05T08:10:06.170Z,9.30
2023-05-05T08:11:06.157Z,11.07
2023-05-05T08:12:06.144Z,12.65
2023-05-05T08:13:06.241Z,13.15
2023-05-05T08:14:06.121Z,13.46
2023-05-05T08:15:06.360Z,14.00
2023-05-05T08:16:06.139Z,14.20
2023-05-05T08:17:06.166Z,14.48
2023-05-05T08:18:06.155Z,14.43
2023-05-05T08:19:12.079Z,14.62
2023-05-05T08:20:07.104Z,12.44
2023-05-05T08:21:06.099Z,8.37
2023-05-05T08:22:06.077Z,9.64
2023-05-05T08:23:06.067Z,9.29
2023-05-05T08:24:06.352Z,8.73
2023-05-05T08:25:06.157Z,6.07
2023-05-05T08:26:06.066Z,3.56
2023-05-05T08:27:06.112Z,1.97
2023-05-05T08:28:06.164Z,1.28
2023-05-05T08:29:06.204Z,1.05
2023-05-05T08:30:06.252Z,0.69
2023-05-05T08:31:06.313Z,0.54
2023-05-05T08:32:06.373Z,0.50
2023-05-05T08:33:06.557Z,0.42
2023-05-05T08:34:06.460Z,0.53
2023-05-05T08:35:06.854Z,0.50
2023-05-05T08:36:06.578Z,0.53
2023-05-05T08:37:06.632Z,0.64
2023-05-05T08:38:06.694Z,0.81
2023-05-05T08:39:06.739Z,0.90
2023-05-05T08:40:06.803Z,0.89
2023-05-05T08:41:06.883Z,0.85
2023-05-05T08:42:06.943Z,0.83
2023-05-05T08:43:06.975Z,0.90
2023-05-05T08:44:07.037Z,1.14
2023-05-05T08:45:07.247Z,1.44
2023-05-05T08:46:07.166Z,1.76
2023-05-05T08:47:07.386Z,2.17
2023-05-05T08:48:07.259Z,2.19
2023-05-05T08:49:07.332Z,1.80
2023-05-05T08:50:07.325Z,1.63
2023-05-05T08:51:07.348Z,1.56
2023-05-05T08:52:07.378Z,1.68
2023-05-05T08:53:07.469Z,1.81
2023-05-05T08:54:07.861Z,2.16
2023-05-05T08:55:07.722Z,2.35
2023-05-05T08:56:07.520Z,1.91
2023-05-05T08:57:07.519Z,1.74
2023-05-05T08:58:07.576Z,1.70
2023-05-05T08:59:07.595Z,1.36
2023-05-05T09:00:07.600Z,1.31
2023-05-05T09:01:07.699Z,1.32
2023-05-05T09:02:07.677Z,1.24
2023-05-05T09:03:07.892Z,1.20
2023-05-05T09:04:07.742Z,0.96
2023-05-05T09:05:08.067Z,0.97
2023-05-05T09:06:07.775Z,1.11
2023-05-05T09:07:07.799Z,0.96
2023-05-05T09:08:07.806Z,1.00
2023-05-05T09:09:07.854Z,1.53
2023-05-05T09:10:07.872Z,1.42
2023-05-05T09:11:07.912Z,1.98
2023-05-05T09:12:07.931Z,2.30
2023-05-05T09:13:07.970Z,2.52
2023-05-05T09:14:07.982Z,2.82
2023-05-05T09:15:08.125Z,3.47
2023-05-05T09:16:08.026Z,3.33
2023-05-05T09:17:08.191Z,3.15
2023-05-05T09:18:08.179Z,2.92
2023-05-05T09:19:08.100Z,2.37
2023-05-05T09:20:08.122Z,2.50
2023-05-05T09:21:08.279Z,3.15
2023-05-05T09:22:08.171Z,3.45
2023-05-05T09:23:08.188Z,5.79
2023-05-05T09:24:09.046Z,8.36
2023-05-05T09:25:08.466Z,9.56
2023-05-05T09:26:08.245Z,7.22
2023-05-05T09:27:08.280Z,4.67
2023-05-05T09:28:08.295Z,3.85
2023-05-05T09:29:08.345Z,3.84
2023-05-05T09:30:08.340Z,3.69
2023-05-05T09:31:08.395Z,3.56
2023-05-05T09:32:08.738Z,3.98
2023-05-05T09:33:08.973Z,2.93
2023-05-05T09:34:08.423Z,2.56
2023-05-05T09:35:08.686Z,1.47
2023-05-05T09:36:08.473Z,1.75
2023-05-05T09:37:08.553Z,2.33
2023-05-05T09:38:08.875Z,2.96
2023-05-05T09:39:08.576Z,3.59
2023-05-05T09:40:08.594Z,4.08
2023-05-05T09:41:08.662Z,4.19
2023-05-05T09:42:08.673Z,4.73
2023-05-05T09:43:08.709Z,5.83
2023-05-05T09:44:08.739Z,6.88
2023-05-05T09:45:08.906Z,8.47
2023-05-05T09:46:08.881Z,9.90
2023-05-05T09:47:21.969Z,9.90
2023-05-05T09:48:09.857Z,9.92
2023-05-05T09:49:08.805Z,10.05
2023-05-05T09:50:09.039Z,10.14
2023-05-05T09:51:08.811Z,10.96
2023-05-05T09:52:08.817Z,13.08
2023-05-05T09:53:08.950Z,13.70
2023-05-05T09:54:08.791Z,14.43
2023-05-05T09:55:08.770Z,15.57
2023-05-05T09:56:08.798Z,17.12
2023-05-05T09:57:08.768Z,18.19
2023-05-05T09:58:08.795Z,19.04
2023-05-05T09:59:08.741Z,19.48
2023-05-05T10:00:09.054Z,20.51
2023-05-05T10:01:08.767Z,20.84
2023-05-05T10:02:08.709Z,20.85
2023-05-05T10:03:08.787Z,20.55
2023-05-05T10:04:08.699Z,26.08
2023-05-05T10:05:08.977Z,28.35
2023-05-05T10:06:08.736Z,26.31
2023-05-05T10:07:08.747Z,23.28
2023-05-05T10:08:08.775Z,20.17
2023-05-05T10:09:08.810Z,17.45
2023-05-05T10:10:09.035Z,15.89
2023-05-05T10:11:08.849Z,14.65
2023-05-05T10:12:08.916Z,14.12
2023-05-05T10:13:08.935Z,13.84
2023-05-05T10:14:08.928Z,13.72
2023-05-05T10:15:08.963Z,14.61
2023-05-05T10:16:09.077Z,14.82
2023-05-05T10:17:09.019Z,15.56
2023-05-05T10:18:09.044Z,15.00
2023-05-05T10:19:09.069Z,14.55
2023-05-05T10:20:09.254Z,14.19
2023-05-05T10:21:09.138Z,12.72
2023-05-05T10:22:09.161Z,6.11
2023-05-05T10:23:09.182Z,4.66
2023-05-05T10:24:09.187Z,3.79
2023-05-05T10:25:09.293Z,2.85
2023-05-05T10:26:09.235Z,2.66
2023-05-05T10:27:10.570Z,3.26
2023-05-05T10:28:09.231Z,3.62
2023-05-05T10:29:09.222Z,4.08
2023-05-05T10:30:09.574Z,3.91
2023-05-05T10:31:20.334Z,4.29
2023-05-05T10:32:33.538Z,4.32
2023-05-05T10:33:30.020Z,4.33
2023-05-05T10:34:10.413Z,4.34
2023-05-05T10:35:09.206Z,4.58
2023-05-05T10:36:09.188Z,5.08
2023-05-05T10:37:09.189Z,6.42
2023-05-05T10:38:09.175Z,8.83
2023-05-05T10:39:09.178Z,9.85
2023-05-05T10:40:09.345Z,11.89
2023-05-05T10:41:09.148Z,12.89
2023-05-05T10:42:09.131Z,13.59
2023-05-05T10:43:09.133Z,13.66
2023-05-05T10:44:09.158Z,12.60
2023-05-05T10:45:09.169Z,12.02
2023-05-05T10:46:09.133Z,13.06
2023-05-05T10:47:09.105Z,13.50
2023-05-05T10:48:09.255Z,9.05
2023-05-05T10:49:11.118Z,10.53
2023-05-05T10:50:09.376Z,10.55
2023-05-05T10:51:09.078Z,10.81
2023-05-05T10:52:09.071Z,11.37
2023-05-05T10:53:09.071Z,12.62
2023-05-05T10:54:09.078Z,13.98
2023-05-05T10:55:09.047Z,13.44
2023-05-05T10:56:09.028Z,14.76
2023-05-05T10:57:09.098Z,14.63
2023-05-05T10:58:09.046Z,14.69
2023-05-05T10:59:09.026Z,14.10
2023-05-05T11:00:09.268Z,15.69
2023-05-05T11:01:09.038Z,38.62
2023-05-05T11:02:09.000Z,32.29
2023-05-05T11:03:09.051Z,24.14
2023-05-05T11:04:09.091Z,21.89
2023-05-05T11:05:09.005Z,18.61
2023-05-05T11:06:08.972Z,17.26
2023-05-05T11:07:11.764Z,15.40
2023-05-05T11:08:09.938Z,7.73
2023-05-05T11:09:08.951Z,8.05
2023-05-05T11:10:09.564Z,9.04
2023-05-05T11:11:08.930Z,9.67
2023-05-05T11:12:08.929Z,6.19
2023-05-05T11:13:09.037Z,4.10
2023-05-05T11:14:08.913Z,3.21
2023-05-05T11:15:08.916Z,3.37
2023-05-05T11:16:08.915Z,4.56
2023-05-05T11:17:08.897Z,5.15
2023-05-05T11:18:09.018Z,4.44
2023-05-05T11:19:08.854Z,2.98
2023-05-05T11:20:09.323Z,4.93
2023-05-05T11:21:08.862Z,6.13
2023-05-05T11:22:08.860Z,5.63
2023-05-05T11:23:08.850Z,6.08
2023-05-05T11:24:08.824Z,7.78
2023-05-05T11:25:08.828Z,6.86
2023-05-05T11:26:08.805Z,5.60
2023-05-05T11:27:08.835Z,3.65
2023-05-05T11:28:08.896Z,3.43
2023-05-05T11:29:08.941Z,3.00
2023-05-05T11:30:09.052Z,3.07
2023-05-05T11:31:08.967Z,0.97
2023-05-05T11:32:08.968Z,0.91
2023-05-05T11:33:09.007Z,0.92
2023-05-05T11:34:09.016Z,0.80
2023-05-05T11:35:09.052Z,0.90
2023-05-05T11:36:09.092Z,2.04
2023-05-05T11:37:09.258Z,2.01
2023-05-05T11:38:09.171Z,1.79
2023-05-05T11:39:09.225Z,2.39
2023-05-05T11:40:09.394Z,2.42
2023-05-05T11:41:09.234Z,2.68
2023-05-05T11:42:10.972Z,3.06
2023-05-05T11:43:09.301Z,3.28
2023-05-05T11:44:09.330Z,3.82
2023-05-05T11:45:09.443Z,4.42
2023-05-05T11:46:09.443Z,5.27
2023-05-05T11:47:09.388Z,6.04
2023-05-05T11:48:09.470Z,7.36
2023-05-05T11:49:09.450Z,5.95
2023-05-05T11:50:09.647Z,5.42
2023-05-05T11:51:09.487Z,5.53
2023-05-05T11:52:09.507Z,7.45
2023-05-05T11:53:09.535Z,9.01
2023-05-05T11:54:09.562Z,9.48
2023-05-05T11:55:09.586Z,10.44
2023-05-05T11:56:09.615Z,10.46
2023-05-05T11:57:09.638Z,10.24
2023-05-05T11:58:09.645Z,8.76
2023-05-05T11:59:09.724Z,8.55
2023-05-05T12:00:09.827Z,6.18
2023-05-05T12:01:09.879Z,5.42
2023-05-05T12:02:09.751Z,5.32
2023-05-05T12:03:09.877Z,5.26
2023-05-05T12:04:09.987Z,4.42
2023-05-05T12:05:09.838Z,3.71
2023-05-05T12:06:09.877Z,5.29
2023-05-05T12:07:09.904Z,3.63
2023-05-05T12:08:09.949Z,2.83
2023-05-05T12:09:09.969Z,1.92
2023-05-05T12:10:10.127Z,2.35
2023-05-05T12:11:10.080Z,2.00
2023-05-05T12:12:10.055Z,2.16
2023-05-05T12:13:10.153Z,3.59
2023-05-05T12:14:10.116Z,2.39
2023-05-05T12:15:10.290Z,1.81
2023-05-05T12:16:10.194Z,1.27
2023-05-05T12:17:10.351Z,1.17
2023-05-05T12:18:10.339Z,1.32
2023-05-05T12:19:10.293Z,0.99
2023-05-05T12:20:10.644Z,0.73
2023-05-05T12:21:10.367Z,0.91
2023-05-05T12:22:10.401Z,0.78
2023-05-05T12:23:10.441Z,0.63
2023-05-05T12:24:10.502Z,0.57
2023-05-05T12:25:10.488Z,0.57
2023-05-05T12:26:10.539Z,0.65
2023-05-05T12:27:10.561Z,0.50
2023-05-05T12:28:10.618Z,0.55
2023-05-05T12:29:10.650Z,0.50
2023-05-05T12:30:10.691Z,0.53
2023-05-05T12:31:10.760Z,0.57
2023-05-05T12:32:10.817Z,0.53
2023-05-05T12:33:10.791Z,0.50
2023-05-05T12:34:10.837Z,0.64
2023-05-05T12:35:10.899Z,1.41
2023-05-05T12:36:10.892Z,3.00
2023-05-05T12:37:10.909Z,3.73
2023-05-05T12:38:10.936Z,3.01
2023-05-05T12:39:10.960Z,3.10
2023-05-05T12:40:11.098Z,2.75
2023-05-05T12:41:11.020Z,3.80
2023-05-05T12:42:11.114Z,4.91
2023-05-05T12:43:11.097Z,4.59
2023-05-05T12:44:11.134Z,4.62
2023-05-05T12:45:11.155Z,3.70
2023-05-05T12:46:11.205Z,4.49
2023-05-05T12:47:11.182Z,4.82
2023-05-05T12:48:11.223Z,5.28
2023-05-05T12:49:11.298Z,5.13
2023-05-05T12:50:11.361Z,5.26
2023-05-05T12:51:11.301Z,5.11
2023-05-05T12:52:11.302Z,6.01
2023-05-05T12:53:11.354Z,6.54
2023-05-05T12:54:11.361Z,6.85
2023-05-05T12:55:11.386Z,6.94
2023-05-05T12:56:11.404Z,6.86
2023-05-05T12:57:11.420Z,6.55
2023-05-05T12:58:11.437Z,6.14
2023-05-05T12:59:11.462Z,5.46
2023-05-05T13:00:11.519Z,5.96
2023-05-05T13:01:11.521Z,6.02
2023-05-05T13:02:11.549Z,6.49